Time;durP1;ratioP1;P1;durP2;ratioP2;P2;SDS_P1;SDS_P2;PMS_P1;PMS_P2;Temp;Humidity;BMP_temperature;BMP_pressure;BME280_temperature;BME280_humidity;BME280_pressure;Samples;Min_cycle;Max_cycle;Signal;HPM_P1;HPM_P2
2021/05/13 00:01:46;;;;;;;;;;;;;;;;;;3604873;39;20293;-72
2021/05/13 00:04:12;;;;;;;;;;;;;;;;;;3605981;39;19936;-73
2021/05/13 00:06:38;;;;;;;;;;;;;;;;;;3607142;39;19968;-72
2021/05/13 00:09:04;;;;;;;;;;;;;;;;;;3610506;39;19932;-71
2021/05/13 00:11:35;;;;;;;;;;;;;;;;;;3605440;39;19952;-72
2021/05/13 00:14:01;;;;;;;;;;;;;;;;;;3608722;39;19932;-72
2021/05/13 00:16:32;;;;;;;;;;;;;;;;;;3604186;39;19943;-71
2021/05/13 00:18:58;;;;;;;;;;;;;;;;;;3606833;39;20015;-70
2021/05/13 00:21:24;;;;;;;;;;;;;;;;;;3606446;39;20262;-71
2021/05/13 00:23:50;;;;;;;;;;;;;;;;;;3606806;39;19932;-71
2021/05/13 00:26:19;;;;;;;;;;;;;;;;;;3603157;39;19935;-71
2021/05/13 00:28:44;;;;;;;;;;;;;;;;;;3606030;39;19932;-72
2021/05/13 00:31:10;;;;;;;;;;;;;;;;;;3606027;39;20385;-71
2021/05/13 00:33:36;;;;;;;;;;;;;;;;;;3609125;39;19932;-71
2021/05/13 00:36:02;;;;;;;;;;;;;;;;;;3607660;39;19932;-71
2021/05/13 00:38:28;;;;;;;;;;;;;;;;;;3606259;39;20458;-72
2021/05/13 00:40:54;;;;;;;;;;;;;;;;;;3608070;39;19938;-72
2021/05/13 00:43:20;;;;;;;;;;;;;;;;;;3608721;39;19931;-71
2021/05/13 00:45:46;;;;;;;;;;;;;;;;;;3606891;39;19940;-73
2021/05/13 00:48:17;;;;;;;;;;;;;;;;;;3604565;39;20045;-71
2021/05/13 00:50:43;;;;;;;;;;;;;;;;;;3604981;39;19967;-72
2021/05/13 00:53:09;;;;;;;;;;;;;;;;;;3606136;39;19932;-72
2021/05/13 00:55:35;;;;;;;;;;;;;;;;;;3609012;39;20050;-72
2021/05/13 00:58:01;;;;;;;;;;;;;;;;;;3599489;39;19939;-72
2021/05/13 01:05:26;;;;;;;;;;;;;;;;;;3591024;40;19952;-70
2021/05/13 01:07:52;;;;;;;;;;;;;;;;;;3590822;40;20204;-70
2021/05/13 01:10:18;;;;;;;;;;;;;;;;;;3590184;40;19932;-70
2021/05/13 01:12:45;;;;;;;;;;;;;;;;;;3588098;40;20201;-70
2021/05/13 01:15:20;;;;;;;;;;;;;;;;;;3591306;40;19939;-70
2021/05/13 01:18:00;;;;;;;;;;;;;;;;;;3588828;40;19932;-70
2021/05/13 01:20:27;;;;;;;;;;;;;;;;;;3587507;40;19939;-70
2021/05/13 01:22:53;;;;;;;;;;;;;;;;;;3580465;40;20197;-70
2021/05/13 01:25:19;;;;;;;;;;;;;;;;;;3589863;40;19933;-70
2021/05/13 01:27:45;;;;;;;;;;;;;;;;;;3588681;40;19939;-70
2021/05/13 01:30:11;;;;;;;;;;;;;;;;;;3586251;40;19933;-70
2021/05/13 01:32:37;;;;;;;;;;;;;;;;;;3591524;40;19932;-70
2021/05/13 01:35:02;;;;;;;;;;;;;;;;;;3586890;40;20274;-70
2021/05/13 01:37:28;;;;;;;;;;;;;;;;;;3587625;40;19933;-70
2021/05/13 01:39:54;;;;;;;;;;;;;;;;;;3586202;40;19932;-70
2021/05/13 01:42:20;;;;;;;;;;;;;;;;;;3580412;40;19932;-70
2021/05/13 01:44:46;;;;;;;;;;;;;;;;;;3587594;40;20278;-70
2021/05/13 01:47:12;;;;;;;;;;;;;;;;;;3579110;40;19933;-70
2021/05/13 01:49:39;;;;;;;;;;;;;;;;;;3586305;40;20014;-70
2021/05/13 01:52:05;;;;;;;;;;;;;;;;;;3585019;40;19933;-71
2021/05/13 01:54:31;;;;;;;;;;;;;;;;;;3589879;40;19940;-70
2021/05/13 01:56:56;;;;;;;;;;;;;;;;;;3590232;40;20217;-70
2021/05/13 01:59:22;;;;;;;;;;;;;;;;;;3585498;40;19932;-70
2021/05/13 02:01:48;;;;;;;;;;;;;;;;;;3592473;40;19932;-70
2021/05/13 02:04:14;;;;;;;;;;;;;;;;;;3589857;40;19932;-70
2021/05/13 02:06:40;;;;;;;;;;;;;;;;;;3580181;40;20295;-70
2021/05/13 02:09:06;;;;;;;;;;;;;;;;;;3590808;40;19955;-70
2021/05/13 02:11:32;;;;;;;;;;;;;;;;;;3580676;40;19939;-70
2021/05/13 02:13:58;;;;;;;;;;;;;;;;;;3592456;40;19939;-70
2021/05/13 02:16:24;;;;;;;;;;;;;;;;;;3593701;40;19944;-70
2021/05/13 02:18:50;;;;;;;;;;;;;;;;;;3588454;40;19932;-70
2021/05/13 02:21:15;;;;;;;;;;;;;;;;;;3586939;40;19932;-70
2021/05/13 02:23:42;;;;;;;;;;;;;;;;;;3591092;40;20292;-70
2021/05/13 02:26:08;;;;;;;;;;;;;;;;;;3587940;40;19932;-70
2021/05/13 02:28:34;;;;;;;;;;;;;;;;;;3586785;40;19939;-70
2021/05/13 02:31:00;;;;;;;;;;;;;;;;;;3588888;40;19952;-69
2021/05/13 02:33:26;;;;;;;;;;;;;;;;;;3589306;40;19944;-70
2021/05/13 02:35:52;;;;;;;;;;;;;;;;;;3580287;40;20277;-70
2021/05/13 02:38:18;;;;;;;;;;;;;;;;;;3586814;40;19932;-67
2021/05/13 02:40:44;;;;;;;;;;;;;;;;;;3592342;40;20042;-67
2021/05/13 02:43:10;;;;;;;;;;;;;;;;;;3581427;40;19941;-68
2021/05/13 02:45:36;;;;;;;;;;;;;;;;;;3580033;40;20047;-68
2021/05/13 02:48:01;;;;;;;;;;;;;;;;;;3587907;40;19940;-67
2021/05/13 02:50:27;;;;;;;;;;;;;;;;;;3589301;40;19932;-68
2021/05/13 02:52:53;;;;;;;;;;;;;;;;;;3589507;40;19983;-71
2021/05/13 02:55:19;;;;;;;;;;;;;;;;;;3589211;40;20201;-70
2021/05/13 02:57:47;;;;;;;;;;;;;;;;;;3589131;40;20261;-70
2021/05/13 03:02:48;;;;;;;;;;;12.60;99.90;;;;;;3588627;40;20288;-70
2021/05/13 03:05:15;;;;;;;;;;;10.00;99.90;;;;;;3589006;40;19939;-70
2021/05/13 03:07:49;;;;;;;;;;;9.90;99.90;;;;;;3588996;40;19941;-71
2021/05/13 03:10:25;;;;;;;;;;;9.80;99.90;;;;;;3584337;40;19940;-70
2021/05/13 03:12:55;;;;;;;;;;;9.70;99.90;;;;;;3587181;40;20189;-70
2021/05/13 03:15:21;;;;;;;;;;;;;;;;;;3588477;40;19967;-70
2021/05/13 03:17:48;;;;;;;;;;;9.70;99.90;;;;;;3588990;40;19932;-70
2021/05/13 03:20:18;;;;;;;;;;;9.60;99.90;;;;;;3584878;40;19936;-70
2021/05/13 03:22:44;;;;;;;;;;;9.60;99.90;;;;;;3589361;40;19944;-70
2021/05/13 03:25:11;;;;;;;;;;;9.60;99.90;;;;;;3587342;40;19940;-70
2021/05/13 03:30:05;;;;;;;;;;;9.50;99.90;;;;;;3589011;40;20204;-70
2021/05/13 03:32:31;;;;;;;;;;;9.40;99.90;;;;;;3580761;40;19968;-70
2021/05/13 03:34:57;;;;;;;;;;;;;;;;;;3581876;40;20178;-70
2021/05/13 03:37:26;;;;;;;;;;;;;;;;;;3590617;40;19969;-70
2021/05/13 03:39:52;;;;;;;;;;;;;;;;;;3590125;40;19972;-70
2021/05/13 03:42:19;;;;;;;;;;;9.40;99.90;;;;;;3593126;40;20166;-70
2021/05/13 03:44:45;;;;;;;;;;;9.20;99.90;;;;;;3590645;40;20017;-70
2021/05/13 03:47:10;;;;;;;;;;;9.10;99.90;;;;;;3589369;40;20256;-70
2021/05/13 03:49:36;;;;;;;;;;;9.10;99.90;;;;;;3590086;40;20031;-70
2021/05/13 03:52:02;;;;;;;;;;;9.10;99.90;;;;;;3589606;40;19943;-70
2021/05/13 03:54:27;;;;;;;;;;;9.10;99.90;;;;;;3589312;40;19944;-70
2021/05/13 03:56:53;;;;;;;;;;;9.10;99.90;;;;;;3590321;40;20181;-70
2021/05/13 03:59:20;;;;;;;;;;;9.10;99.90;;;;;;3580970;40;19943;-70
2021/05/13 04:04:27;;;;;;;;;;;9.10;99.90;;;;;;3590792;40;20077;-70
2021/05/13 04:06:52;;;;;;;;;;;9.10;99.90;;;;;;3592174;40;19932;-70
2021/05/13 04:09:18;;;;;;;;;;;9.20;99.90;;;;;;3594818;40;19998;-70
2021/05/13 04:11:44;;;;;;;;;;;9.20;99.90;;;;;;3580892;40;19945;-70
2021/05/13 04:14:10;;;;;;;;;;;9.20;99.90;;;;;;3590104;40;20021;-70
2021/05/13 04:16:39;;;;;;;;;;;9.20;99.90;;;;;;3579888;40;19983;-70
2021/05/13 04:19:05;;;;;;;;;;;9.10;99.90;;;;;;3589615;40;19936;-70
2021/05/13 04:21:31;;;;;;;;;;;9.10;99.90;;;;;;3591346;40;20114;-71
2021/05/13 04:23:56;;;;;;;;;;;9.10;99.90;;;;;;3590930;40;19940;-70
2021/05/13 04:26:22;;;;;;;;;;;9.10;99.90;;;;;;3589132;40;19932;-70
2021/05/13 04:28:48;;;;;;;;;;;9.10;99.90;;;;;;3587504;40;19939;-70
2021/05/13 04:31:14;;;;;;;;;;;9.10;99.90;;;;;;3587706;40;19939;-70
2021/05/13 04:33:40;;;;;;;;;;;9.10;99.90;;;;;;3589473;40;19940;-70
2021/05/13 04:36:06;;;;;;;;;;;9.10;99.90;;;;;;3590220;40;19976;-70
2021/05/13 04:38:33;;;;;;;;;;;9.10;99.90;;;;;;3588766;40;20386;-70
2021/05/13 04:40:59;;;;;;;;;;;9.20;99.90;;;;;;3588320;40;19933;-71
2021/05/13 04:43:30;;;;;;;;;;;9.10;99.90;;;;;;3589775;40;20299;-70
2021/05/13 04:45:56;;;;;;;;;;;9.10;99.90;;;;;;3588820;40;19940;-70
2021/05/13 04:48:25;;;;;;;;;;;9.20;99.90;;;;;;3590189;40;19933;-70
2021/05/13 04:50:52;;;;;;;;;;;9.20;99.90;;;;;;3579983;40;20252;-70
2021/05/13 04:53:17;;;;;;;;;;;9.20;99.90;;;;;;3582937;40;19944;-70
2021/05/13 04:55:43;;;;;;;;;;;;;;;;;;3589859;40;19944;-70
2021/05/13 04:58:09;;;;;;;;;;;;;;;;;;3589958;40;19928;-70
2021/05/13 05:00:35;;;;;;;;;;;;;;;;;;3590007;40;19971;-70
2021/05/13 05:03:01;;;;;;;;;;;;;;;;;;3590005;40;19929;-70
2021/05/13 05:05:27;;;;;;;;;;;;;;;;;;3595456;40;19938;-70
2021/05/13 05:07:53;;;;;;;;;;;;;;;;;;3592081;40;20017;-70
2021/05/13 05:10:19;;;;;;;;;;;;;;;;;;3588827;40;19929;-70
2021/05/13 05:12:45;;;;;;;;;;;;;;;;;;3587300;40;19936;-70
2021/05/13 05:15:11;;;;;;;;;;;;;;;;;;3589171;40;20047;-70
2021/05/13 05:17:37;;;;;;;;;;;;;;;;;;3591193;40;19928;-70
2021/05/13 05:20:03;;;;;;;;;;;;;;;;;;3589511;40;19941;-70
2021/05/13 05:22:29;;;;;;;;;;;;;;;;;;3578187;40;19928;-70
2021/05/13 05:24:55;;;;;;;;;;;;;;;;;;3589866;40;20271;-70
2021/05/13 05:27:20;;;;;;;;;;;;;;;;;;3592746;40;19951;-70
2021/05/13 05:29:46;;;;;;;;;;;;;;;;;;3579863;40;19964;-70
2021/05/13 05:32:12;;;;;;;;;;;;;;;;;;3580315;40;19943;-70
2021/05/13 05:34:42;;;;;;;;;;;;;;;;;;3578524;40;20189;-70
2021/05/13 05:37:08;;;;;;;;;;;;;;;;;;3580230;40;20216;-70
2021/05/13 05:39:34;;;;;;;;;;;;;;;;;;3578387;40;19929;-70
2021/05/13 05:42:00;;;;;;;;;;;;;;;;;;3583282;40;19944;-70
2021/05/13 05:44:26;;;;;;;;;;;;;;;;;;3591996;40;20281;-70
2021/05/13 05:46:52;;;;;;;;;;;;;;;;;;3592105;40;19936;-70
2021/05/13 05:49:19;;;;;;;;;;;9.20;99.90;;;;;;3589530;40;20052;-70
2021/05/13 05:51:44;;;;;;;;;;;;;;;;;;3587363;40;19976;-70
2021/05/13 05:54:10;;;;;;;;;;;10.90;99.90;;;;;;3589380;40;20265;-70
2021/05/13 05:56:36;;;;;;;;;;;11.00;99.90;;;;;;3589714;40;19936;-70
2021/05/13 05:59:02;;;;;;;;;;;11.10;99.90;;;;;;3589267;40;20300;-70
2021/05/13 06:01:27;;;;;;;;;;;11.20;99.90;;;;;;3590801;40;20366;-71
2021/05/13 06:03:54;;;;;;;;;;;11.20;99.90;;;;;;3579809;40;20296;-70
2021/05/13 06:06:20;;;;;;;;;;;;;;;;;;3581078;40;19932;-70
2021/05/13 06:08:46;;;;;;;;;;;;;;;;;;3594033;40;19929;-71
2021/05/13 06:11:12;;;;;;;;;;;;;;;;;;3591927;40;19949;-70
2021/05/13 06:13:38;;;;;;;;;;;;;;;;;;3592348;40;19929;-70
2021/05/13 06:16:04;;;;;;;;;;;;;;;;;;3592036;40;20009;-70
2021/05/13 06:18:30;;;;;;;;;;;;;;;;;;3591481;40;19928;-70
2021/05/13 06:20:56;;;;;;;;;;;;;;;;;;3581887;40;19928;-70
2021/05/13 06:23:22;;;;;;;;;;;;;;;;;;3589778;40;20277;-70
2021/05/13 06:25:47;;;;;;;;;;;;;;;;;;3591270;40;20276;-71
2021/05/13 06:28:13;;;;;;;;;;;;;;;;;;3591602;40;19928;-71
2021/05/13 06:30:41;;;;;;;;;;;;;;;;;;3593902;40;19928;-71
2021/05/13 06:33:07;;;;;;;;;;;;;;;;;;3591396;40;19928;-70
2021/05/13 06:35:35;;;;;;;;;;;;;;;;;;3590180;40;19955;-70
2021/05/13 06:38:01;;;;;;;;;;;;;;;;;;3576812;40;19936;-71
2021/05/13 06:40:27;;;;;;;;;;;;;;;;;;3593149;40;19951;-70
2021/05/13 06:42:53;;;;;;;;;;;;;;;;;;3580646;40;20277;-70
2021/05/13 06:45:19;;;;;;;;;;;;;;;;;;3590304;40;19936;-70
2021/05/13 06:47:45;;;;;;;;;;;;;;;;;;3592986;40;19928;-71
2021/05/13 06:50:11;;;;;;;;;;;;;;;;;;3592160;40;20001;-70
2021/05/13 06:52:37;;;;;;;;;;;;;;;;;;3589744;40;19940;-70
2021/05/13 06:55:03;;;;;;;;;;;;;;;;;;3581928;40;19986;-71
2021/05/13 06:57:29;;;;;;;;;;;;;;;;;;3590808;40;20013;-71
2021/05/13 06:59:56;;;;;;;;;;;13.80;99.90;;;;;;3597324;40;19929;-71
2021/05/13 07:02:23;;;;;;;;;;;;;;;;;;3593234;40;20289;-71
2021/05/13 07:04:49;;;;;;;;;;;;;;;;;;3594852;40;19932;-71
2021/05/13 07:07:17;;;;;;;;;;;;;;;;;;3582873;40;19967;-70
2021/05/13 07:09:44;;;;;;;;;;;;;;;;;;3591635;40;19944;-71
2021/05/13 07:12:10;;;;;;;;;;;;;;;;;;3591840;40;19932;-71
2021/05/13 07:14:36;;;;;;;;;;;;;;;;;;3578553;40;20308;-70
2021/05/13 07:17:02;;;;;;;;;;;;;;;;;;3591552;40;19932;-71
2021/05/13 07:19:28;;;;;;;;;;;;;;;;;;3589956;40;19939;-71
2021/05/13 07:21:55;;;;;;;;;;;;;;;;;;3590455;40;19932;-70
2021/05/13 07:24:21;;;;;;;;;;;;;;;;;;3589520;40;19932;-71
2021/05/13 07:26:47;;;;;;;;;;;;;;;;;;3589119;40;20277;-71
2021/05/13 07:29:14;;;;;;;;;;;;;;;;;;3589576;40;19932;-71
2021/05/13 07:31:40;;;;;;;;;;;;;;;;;;3592695;40;19932;-71
2021/05/13 07:34:05;;;;;;;;;;;;;;;;;;3593540;40;20002;-71
2021/05/13 07:36:31;;;;;;;;;;;;;;;;;;3589998;40;19940;-71
2021/05/13 07:38:57;;;;;;;;;;;;;;;;;;3590535;40;19932;-71
2021/05/13 07:41:23;;;;;;;;;;;;;;;;;;3581151;40;19948;-69
2021/05/13 07:43:51;;;;;;;;;;;;;;;;;;3585204;40;19995;-70
2021/05/13 07:46:19;;;;;;;;;;;;;;;;;;3585758;40;19932;-70
2021/05/13 07:48:45;;;;;;;;;;;;;;;;;;3586887;40;19947;-70
2021/05/13 07:51:11;;;;;;;;;;;;;;;;;;3585322;40;20221;-69
2021/05/13 07:53:37;;;;;;;;;;;;;;;;;;3587102;40;20029;-70
2021/05/13 07:56:03;;;;;;;;;;;;;;;;;;3586299;40;19941;-69
2021/05/13 07:58:29;;;;;;;;;;;;;;;;;;3583185;40;19963;-69
2021/05/13 08:00:55;;;;;;;;;;;;;;;;;;3586486;40;20017;-70
2021/05/13 08:03:21;;;;;;;;;;;;;;;;;;3579514;40;19955;-70
2021/05/13 08:08:15;;;;;;;;;;;;;;;;;;3566382;40;20228;-68
2021/05/13 08:10:41;;;;;;;;;;;;;;;;;;3568432;40;19929;-67
2021/05/13 08:13:07;;;;;;;;;;;;;;;;;;3569484;40;19929;-68
2021/05/13 08:15:33;;;;;;;;;;;;;;;;;;3566941;40;20022;-65
2021/05/13 08:17:59;;;;;;;;;;;;;;;;;;3568628;40;19929;-67
2021/05/13 08:20:25;;;;;;;;;;;;;;;;;;3559726;40;19929;-65
2021/05/13 08:22:51;;;;;;;;;;;;;;;;;;3569159;40;19936;-65
2021/05/13 08:25:20;;;;;;;;;;;;;;;;;;3565794;40;19936;-67
2021/05/13 08:27:46;;;;;;;;;;;;;;;;;;3568155;40;20015;-67
2021/05/13 08:30:12;;;;;;;;;;;;;;;;;;3569164;40;19960;-67
2021/05/13 08:32:38;;;;;;;;;;;;;;;;;;3569246;40;20266;-66
2021/05/13 08:35:04;;;;;;;;;;;;;;;;;;3568731;40;19933;-68
2021/05/13 08:37:30;;;;;;;;;;;;;;;;;;3569189;40;19937;-67
2021/05/13 08:39:56;;;;;;;;;;;;;;;;;;3568163;40;20211;-67
2021/05/13 08:42:22;;;;;;;;;;;;;;;;;;3568833;40;20015;-68
2021/05/13 08:44:48;;;;;;;;;;;;;;;;;;3569197;40;19929;-67
2021/05/13 08:47:14;;;;;;;;;;;;;;;;;;3568572;40;19945;-68
2021/05/13 08:49:40;;;;;;;;;;;;;;;;;;3569109;40;19933;-67
2021/05/13 08:52:06;;;;;;;;;;;;;;;;;;3565241;40;19929;-67
2021/05/13 08:54:32;;;;;;;;;;;;;;;;;;3568796;40;19936;-67
2021/05/13 08:56:57;;;;;;;;;;;;;;;;;;3565624;40;20282;-67
2021/05/13 08:59:23;;;;;;;;;;;;;;;;;;3568307;40;19936;-67
2021/05/13 09:01:49;;;;;;;;;;;;;;;;;;3568532;40;20198;-67
2021/05/13 09:04:15;;;;;;;;;;;;;;;;;;3567776;40;19937;-67
2021/05/13 09:06:43;;;;;;;;;;;;;;;;;;3569761;40;19929;-67
2021/05/13 09:09:10;;;;;;;;;;;;;;;;;;3568852;40;19940;-67
2021/05/13 09:11:36;;;;;;;;;;;;;;;;;;3567866;40;19991;-66
2021/05/13 09:14:02;;;;;;;;;;;;;;;;;;3568924;40;19929;-67
2021/05/13 09:16:29;;;;;;;;;;;;;;;;;;3569372;40;19929;-67
2021/05/13 09:18:55;;;;;;;;;;;;;;;;;;3567935;40;19933;-68
2021/05/13 09:21:21;;;;;;;;;;;;;;;;;;3571866;40;19936;-67
2021/05/13 09:23:46;;;;;;;;;;;;;;;;;;3568064;40;19929;-67
2021/05/13 09:26:12;;;;;;;;;;;;;;;;;;3568672;40;19929;-67
2021/05/13 09:28:38;;;;;;;;;;;;;;;;;;3559190;40;19936;-67
2021/05/13 09:31:04;;;;;;;;;;;;;;;;;;3570466;40;19941;-68
2021/05/13 09:33:30;;;;;;;;;;;;;;;;;;3568032;40;20227;-68
2021/05/13 09:35:56;;;;;;;;;;;;;;;;;;3567565;40;19929;-69
2021/05/13 09:38:22;;;;;;;;;;;;;;;;;;3567770;40;19957;-68
2021/05/13 09:40:52;;;;;;;;;;;;;;;;;;3566582;40;19936;-69
2021/05/13 09:43:21;;;;;;;;;;;;;;;;;;3566745;40;20063;-67
2021/05/13 09:45:47;;;;;;;;;;;;;;;;;;3567926;40;20214;-68
2021/05/13 09:48:13;;;;;;;;;;;;;;;;;;3566857;40;19936;-68
2021/05/13 09:50:39;;;;;;;;;;;;;;;;;;3567713;40;19929;-68
2021/05/13 09:53:06;;;;;;;;;;;;;;;;;;3568743;40;19937;-68
2021/05/13 09:55:32;;;;;;;;;;;;;;;;;;3559001;40;20167;-67
2021/05/13 09:57:58;;;;;;;;;;;;;;;;;;3568609;40;19937;-67
2021/05/13 10:00:24;;;;;;;;;;;;;;;;;;3568075;40;19930;-68
2021/05/13 10:02:50;;;;;;;;;;;;;;;;;;3568016;40;19936;-67
2021/05/13 10:05:16;;;;;;;;;;;;;;;;;;3567947;40;19979;-68
2021/05/13 10:07:42;;;;;;;;;;;;;;;;;;3567991;40;19936;-67
2021/05/13 10:10:08;;;;;;;;;;;;;;;;;;3567824;40;19937;-67
2021/05/13 10:12:34;;;;;;;;;;;;;;;;;;3567992;40;19948;-67
2021/05/13 10:15:00;;;;;;;;;;;;;;;;;;3568135;40;19936;-67
2021/05/13 10:17:26;;;;;;;;;;;;;;;;;;3567150;40;19941;-68
2021/05/13 10:19:52;;;;;;;;;;;;;;;;;;3567297;40;19929;-68
2021/05/13 10:22:19;;;;;;;;;;;;;;;;;;3568200;40;19965;-68
2021/05/13 10:24:45;;;;;;;;;;;;;;;;;;3558184;40;20282;-69
2021/05/13 10:27:10;;;;;;;;;;;;;;;;;;3568213;40;19936;-68
2021/05/13 10:29:37;;;;;;;;;;;;;;;;;;3569678;40;19936;-68
2021/05/13 10:32:03;;;;;;;;;;;;;;;;;;3567997;40;20233;-70
2021/05/13 10:34:29;;;;;;;;;;;;;;;;;;3567614;40;19944;-68
2021/05/13 10:36:55;;;;;;;;;;;;;;;;;;3568258;40;19933;-68
2021/05/13 10:39:20;;;;;;;;;;;;;;;;;;3568197;40;20293;-68
2021/05/13 10:41:46;;;;;;;;;;;;;;;;;;3569844;40;19929;-67
2021/05/13 10:44:12;;;;;;;;;;;;;;;;;;3561306;40;20014;-67
2021/05/13 10:46:38;;;;;;;;;;;;;;;;;;3570137;40;20202;-68
2021/05/13 10:49:04;;;;;;;;;;;;;;;;;;3570445;40;19944;-68
2021/05/13 10:51:30;;;;;;;;;;;;;;;;;;3570458;40;19929;-67
2021/05/13 10:53:56;;;;;;;;;;;;;;;;;;3570096;40;19965;-68
2021/05/13 10:56:22;;;;;;;;;;;;;;;;;;3558263;40;20168;-67
2021/05/13 10:58:48;;;;;;;;;;;;;;;;;;3571457;40;19929;-68
2021/05/13 11:01:14;;;;;;;;;;;;;;;;;;3558206;40;19929;-67
2021/05/13 11:03:40;;;;;;;;;;;;;;;;;;3571945;40;19933;-68
2021/05/13 11:06:06;;;;;;;;;;;;;;;;;;3568205;40;19929;-68
2021/05/13 11:08:32;;;;;;;;;;;;;;;;;;3567688;40;20767;-68
2021/05/13 11:10:59;;;;;;;;;;;;;;;;;;3564111;40;19948;-68
2021/05/13 11:13:25;;;;;;;;;;;;;;;;;;3558754;40;19965;-68
2021/05/13 11:15:53;;;;;;;;;;;;;;;;;;3549525;40;19940;-70
2021/05/13 11:18:19;;;;;;;;;;;;;;;;;;3558848;40;19969;-68
2021/05/13 11:20:45;;;;;;;;;;;;;;;;;;3549682;40;19941;-68
2021/05/13 11:23:11;;;;;;;;;;;;;;;;;;3558505;40;19940;-69
2021/05/13 11:25:37;;;;;;;;;;;;;;;;;;3549376;40;19953;-68
2021/05/13 11:28:03;;;;;;;;;;;;;;;;;;3558731;40;19969;-67
2021/05/13 11:30:29;;;;;;;;;;;;;;;;;;3549401;40;19937;-67
2021/05/13 11:32:55;;;;;;;;;;;;;;;;;;3558477;40;19965;-67
2021/05/13 11:35:21;;;;;;;;;;;;;;;;;;3558127;40;20007;-68
2021/05/13 11:37:51;;;;;;;;;;;;;;;;;;3558750;40;19940;-68
2021/05/13 11:40:17;;;;;;;;;;;;;;;;;;3559244;40;19988;-68
2021/05/13 11:42:43;;;;;;;;;;;;;;;;;;3558142;40;19933;-68
2021/05/13 11:45:08;;;;;;;;;;;;;;;;;;3558394;40;20020;-68
2021/05/13 11:47:34;;;;;;;;;;;;;;;;;;3559076;40;19940;-68
2021/05/13 11:50:00;;;;;;;;;;;;;;;;;;3559082;40;19969;-69
2021/05/13 11:52:26;;;;;;;;;;;;;;;;;;3559327;40;19945;-68
2021/05/13 11:54:52;;;;;;;;;;;;;;;;;;3549930;40;19944;-67
2021/05/13 11:57:18;;;;;;;;;;;;;;;;;;3558603;40;19953;-67
2021/05/13 11:59:44;;;;;;;;;;;;;;;;;;3559952;40;20206;-67
2021/05/13 12:02:14;;;;;;;;;;;;;;;;;;3558397;40;19949;-70
2021/05/13 12:04:40;;;;;;;;;;;;;;;;;;3557800;40;19933;-68
2021/05/13 12:07:07;;;;;;;;;;;;;;;;;;3557760;40;19981;-68
2021/05/13 12:09:33;;;;;;;;;;;;;;;;;;3555666;40;19941;-66
2021/05/13 12:11:59;;;;;;;;;;;;;;;;;;3548006;40;19934;-68
2021/05/13 12:14:28;;;;;;;;;;;;;;;;;;3538956;40;19945;-69
2021/05/13 12:16:54;;;;;;;;;;;;;;;;;;3540029;40;20176;-69
2021/05/13 12:19:20;;;;;;;;;;;;;;;;;;3549322;40;20021;-69
2021/05/13 12:21:47;;;;;;;;;;;;;;;;;;3549218;40;19945;-67
2021/05/13 12:24:13;;;;;;;;;;;;;;;;;;3548609;40;19948;-67
2021/05/13 12:26:39;;;;;;;;;;;;;;;;;;3540221;40;19941;-67
2021/05/13 12:29:05;;;;;;;;;;;;;;;;;;3539262;40;19972;-69
2021/05/13 12:31:31;;;;;;;;;;;;;;;;;;3539133;40;19940;-67
2021/05/13 12:33:57;;;;;;;;;;;;;;;;;;3548250;40;19937;-69
2021/05/13 12:36:23;;;;;;;;;;;;;;;;;;3548961;40;19933;-70
2021/05/13 12:38:49;;;;;;;;;;;;;;;;;;3548884;40;19946;-68
2021/05/13 12:41:16;;;;;;;;;;;;;;;;;;3539777;40;19934;-68
2021/05/13 12:43:42;;;;;;;;;;;;;;;;;;3549174;40;19933;-69
2021/05/13 12:46:08;;;;;;;;;;;;;;;;;;3549070;40;20198;-67
2021/05/13 12:48:33;;;;;;;;;;;;;;;;;;3549512;40;19969;-67
2021/05/13 12:50:59;;;;;;;;;;;;;;;;;;3539543;40;19942;-68
2021/05/13 12:53:25;;;;;;;;;;;;;;;;;;3548419;40;19946;-68
2021/05/13 12:55:51;;;;;;;;;;;;;;;;;;3549030;40;19934;-67
2021/05/13 12:58:17;;;;;;;;;;;;;;;;;;3547928;40;19952;-68
2021/05/13 13:00:44;;;;;;;;;;;;;;;;;;3559710;40;20036;-68
2021/05/13 13:03:14;;;;;;;;;;;;;;;;;;3558875;40;19946;-68
2021/05/13 13:05:40;;;;;;;;;;;;;;;;;;3549239;40;20019;-68
2021/05/13 13:08:06;;;;;;;;;;;;;;;;;;3559534;40;19934;-68
2021/05/13 13:10:32;;;;;;;;;;;;;;;;;;3559540;40;19941;-69
2021/05/13 13:12:58;;;;;;;;;;;;;;;;;;3558391;40;19938;-67
2021/05/13 13:15:25;;;;;;;;;;;;;;;;;;3558926;40;19936;-67
2021/05/13 13:17:51;;;;;;;;;;;;;;;;;;3558246;40;20027;-68
2021/05/13 13:20:17;;;;;;;;;;;;;;;;;;3559324;40;20195;-68
2021/05/13 13:22:43;;;;;;;;;;;;;;;;;;3559094;40;19933;-68
2021/05/13 13:25:09;;;;;;;;;;;;;;;;;;3548367;40;19936;-67
2021/05/13 13:27:37;;;;;;;;;;;;;;;;;;3558079;40;19933;-68
2021/05/13 13:30:03;;;;;;;;;;;;;;;;;;3559020;40;19929;-66
2021/05/13 13:32:29;;;;;;;;;;;;;;;;;;3559516;40;20275;-68
2021/05/13 13:35:01;;;;;;;;;;;;;;;;;;3559596;40;19940;-67
2021/05/13 13:37:27;;;;;;;;;;;;;;;;;;3557111;40;20283;-68
2021/05/13 13:39:53;;;;;;;;;;;;;;;;;;3557511;40;19945;-69
2021/05/13 13:42:19;;;;;;;;;;;;;;;;;;3558428;40;19929;-69
2021/05/13 13:44:45;;;;;;;;;;;;;;;;;;3556593;40;20184;-69
2021/05/13 13:47:11;;;;;;;;;;;;;;;;;;3557001;40;20068;-70
2021/05/13 13:49:36;;;;;;;;;;;;;;;;;;3559657;40;19936;-67
2021/05/13 13:52:02;;;;;;;;;;;;;;;;;;3556213;40;19930;-68
2021/05/13 13:54:28;;;;;;;;;;;;;;;;;;3549444;40;20237;-67
2021/05/13 13:56:54;;;;;;;;;;;;;;;;;;3559464;40;19937;-66
2021/05/13 13:59:20;;;;;;;;;;;;;;;;;;3559242;40;19948;-66
2021/05/13 14:01:46;;;;;;;;;;;;;;;;;;3549894;40;20151;-68
2021/05/13 14:04:12;;;;;;;;;;;;;;;;;;3558349;40;19936;-67
2021/05/13 14:06:38;;;;;;;;;;;;;;;;;;3557430;40;19933;-68
2021/05/13 14:09:04;;;;;;;;;;;;;;;;;;3559406;40;19934;-68
2021/05/13 14:11:31;;;;;;;;;;;;;;;;;;3559367;40;19941;-68
2021/05/13 14:14:01;;;;;;;;;;;;;;;;;;3559565;40;19937;-68
2021/05/13 14:16:29;;;;;;;;;;;;;;;;;;3557202;40;20355;-68
2021/05/13 14:18:55;;;;;;;;;;;;;;;;;;3559276;40;19930;-67
2021/05/13 14:21:21;;;;;;;;;;;;;;;;;;3559042;40;19980;-65
2021/05/13 14:23:47;;;;;;;;;;;;;;;;;;3558537;40;20015;-69
2021/05/13 14:26:12;;;;;;;;;;;;;;;;;;3549084;40;19966;-68
2021/05/13 14:28:38;;;;;;;;;;;;;;;;;;3557106;40;19929;-67
2021/05/13 14:31:04;;;;;;;;;;;;;;;;;;3558249;40;19930;-69
2021/05/13 14:33:30;;;;;;;;;;;;;;;;;;3559278;40;20230;-68
2021/05/13 14:35:58;;;;;;;;;;;;;;;;;;3556260;40;19929;-69
2021/05/13 14:38:24;;;;;;;;;;;;;;;;;;3558844;40;19992;-68
2021/05/13 14:40:50;;;;;;;;;;;;;;;;;;3558847;40;20274;-69
2021/05/13 14:43:16;;;;;;;;;;;;;;;;;;3558613;40;19936;-68
2021/05/13 14:45:42;;;;;;;;;;;;;;;;;;3558530;40;19956;-67
2021/05/13 14:50:33;;;;;;;;;;;;;;;;;;3559135;40;19937;-68
2021/05/13 14:52:59;;;;;;;;;;;;;;;;;;3559332;40;20262;-68
2021/05/13 14:55:25;;;;;;;;;;;;;;;;;;3559096;40;20015;-67
2021/05/13 14:57:51;;;;;;;;;;;;;;;;;;3549853;40;20011;-68
2021/05/13 15:00:17;;;;;;;;;;;;;;;;;;3559124;40;19937;-67
2021/05/13 15:02:43;;;;;;;;;;;;;;;;;;3557659;40;20191;-68
2021/05/13 15:06:00;;;;;;;;;;;;;;;;;;3620776;39;19947;-66
2021/05/13 15:08:26;;;;;;;;;;;;;;;;;;3611095;39;19934;-66
2021/05/13 15:10:52;;;;;;;;;;;;;;;;;;3607511;39;19928;-67
2021/05/13 15:13:18;;;;;;;;;;;;;;;;;;3609872;39;19935;-66
2021/05/13 15:15:44;;;;;;;;;;;;;;;;;;3595306;39;19936;-67
2021/05/13 15:18:10;;;;;;;;;;;;;;;;;;3609642;39;20281;-66
2021/05/13 15:20:36;;;;;;;;;;;;;;;;;;3609559;39;19957;-66
2021/05/13 15:23:02;;;;;;;;;;;;;;;;;;3609855;39;19955;-66
2021/05/13 15:25:29;;;;;;;;;;;;;;;;;;3610871;39;20013;-65
2021/05/13 15:27:55;;;;;;;;;;;;;;;;;;3610275;39;20038;-68
2021/05/13 15:30:22;;;;;;;;;;;;;;;;;;3601084;39;20305;-65
2021/05/13 15:32:48;;;;;;;;;;;;;;;;;;3609764;39;19932;-66
2021/05/13 15:35:14;;;;;;;;;;;;;;;;;;3609627;39;21189;-66
2021/05/13 15:37:40;;;;;;;;;;;;;;;;;;3609071;39;19935;-66
2021/05/13 15:40:06;;;;;;;;;;;;;;;;;;3610324;39;19928;-66
2021/05/13 15:42:31;;;;;;;;;;;;;;;;;;3608835;39;19928;-66
2021/05/13 15:44:57;;;;;;;;;;;;;;;;;;3609321;39;20276;-65
2021/05/13 15:47:23;;;;;;;;;;;;;;;;;;3600175;39;19939;-66
2021/05/13 15:49:49;;;;;;;;;;;;;;;;;;3599707;39;19934;-65
2021/05/13 15:52:15;;;;;;;;;;;;;;;;;;3610458;39;19927;-65
2021/05/13 15:54:41;;;;;;;;;;;;;;;;;;3602628;39;19947;-65
2021/05/13 15:57:07;;;;;;;;;;;;;;;;;;3609048;39;19928;-65
2021/05/13 15:59:33;;;;;;;;;;;;;;;;;;3596794;39;20447;-68
2021/05/13 16:02:00;;;;;;;;;;;;;;;;;;3605191;39;19928;-68
2021/05/13 16:04:28;;;;;;;;;;;;;;;;;;3610437;39;20021;-69
2021/05/13 16:06:53;;;;;;;;;;;;;;;;;;3607676;39;19936;-67
2021/05/13 16:09:20;;;;;;;;;;;;;;;;;;3607646;39;20276;-68
2021/05/13 16:11:47;;;;;;;;;;;;;;;;;;3605690;39;19950;-66
2021/05/13 16:14:13;;;;;;;;;;;;;;;;;;3605802;39;19964;-66
2021/05/13 16:16:39;;;;;;;;;;;;;;;;;;3602056;39;20012;-66
2021/05/13 16:19:05;;;;;;;;;;;;;;;;;;3600418;40;19940;-66
2021/05/13 16:21:31;;;;;;;;;;;;;;;;;;3599361;39;19937;-66
2021/05/13 16:23:57;;;;;;;;;;;;;;;;;;3595167;39;19948;-66
2021/05/13 16:26:23;;;;;;;;;;;22.90;91.60;;;;;;3600406;39;19928;-66
2021/05/13 16:28:49;;;;;;;;;;;;;;;;;;3604105;39;20285;-66
2021/05/13 16:31:15;;;;;;;;;;;;;;;;;;3600079;39;19938;-68
2021/05/13 16:33:41;;;;;;;;;;;;;;;;;;3601912;39;19931;-67
2021/05/13 16:36:07;;;;;;;;;;;;;;;;;;3599640;39;20304;-66
2021/05/13 16:38:33;;;;;;;;;;;;;;;;;;3599482;39;19931;-67